createdAt,value
2018-12-15T00:02:07.561Z,88.80
2018-12-15T00:04:35.045Z,86.80
2018-12-15T00:07:02.693Z,86.00
2018-12-15T00:09:31.117Z,87.20
2018-12-15T00:11:58.628Z,88.10
2018-12-15T00:14:26.217Z,87.40
2018-12-15T00:16:54.833Z,88.40
2018-12-15T00:19:23.125Z,88.40
2018-12-15T00:21:50.603Z,88.70
2018-12-15T00:24:18.126Z,88.90
2018-12-15T00:26:46.468Z,88.50
2018-12-15T00:29:15.177Z,89.20
2018-12-15T00:31:43.370Z,90.20
2018-12-15T00:34:12.054Z,91.00
2018-12-15T00:36:39.567Z,90.60
2018-12-15T00:39:07.932Z,91.40
2018-12-15T00:41:36.218Z,91.20
2018-12-15T00:44:05.285Z,90.60
2018-12-15T00:46:32.924Z,89.30
2018-12-15T00:49:00.560Z,89.30
2018-12-15T00:51:28.628Z,88.50
2018-12-15T00:53:57.005Z,87.90
2018-12-15T00:56:25.897Z,87.90
2018-12-15T00:58:54.015Z,89.70
2018-12-15T01:01:22.658Z,89.50
2018-12-15T01:03:50.197Z,90.90
2018-12-15T01:06:19.029Z,91.70
2018-12-15T01:08:47.510Z,89.30
2018-12-15T01:11:14.995Z,89.40
2018-12-15T01:13:42.574Z,90.30
2018-12-15T01:16:10.802Z,91.60
2018-12-15T01:18:38.843Z,91.90
2018-12-15T01:21:06.345Z,91.30
2018-12-15T01:23:34.133Z,90.70
2018-12-15T01:26:01.602Z,91.60
2018-12-15T01:28:29.413Z,91.50
2018-12-15T01:30:56.893Z,92.30
2018-12-15T01:33:24.395Z,92.20
2018-12-15T01:35:52.562Z,91.70
2018-12-15T01:38:20.830Z,92.60
2018-12-15T01:40:50.450Z,93.90
2018-12-15T01:43:18.294Z,92.30
2018-12-15T01:45:46.426Z,93.30
2018-12-15T01:48:13.939Z,93.50
2018-12-15T01:50:42.140Z,92.80
2018-12-15T01:53:10.230Z,93.00
2018-12-15T01:55:37.746Z,92.60
2018-12-15T01:58:05.856Z,93.10
2018-12-15T02:00:33.328Z,92.20
2018-12-15T02:03:01.900Z,93.80
2018-12-15T02:05:29.366Z,95.70
2018-12-15T02:07:57.450Z,96.10
2018-12-15T02:10:24.947Z,95.60
2018-12-15T02:12:53.166Z,96.90
2018-12-15T02:15:21.003Z,96.40
2018-12-15T02:17:49.138Z,94.70
2018-12-15T02:20:17.574Z,95.30
2018-12-15T02:22:45.050Z,96.30
2018-12-15T02:25:12.770Z,97.00
2018-12-15T02:27:41.494Z,96.30
2018-12-15T02:30:08.999Z,95.80
2018-12-15T02:32:36.465Z,94.40
2018-12-15T02:35:05.054Z,95.00
2018-12-15T02:37:35.538Z,95.30
2018-12-15T02:40:05.500Z,94.30
2018-12-15T02:42:33.687Z,93.50
2018-12-15T02:45:01.291Z,92.50
2018-12-15T02:47:29.130Z,92.20
2018-12-15T02:49:57.398Z,93.60
2018-12-15T02:52:24.990Z,94.00
2018-12-15T02:54:53.867Z,93.80
2018-12-15T02:57:21.941Z,92.80
2018-12-15T02:59:49.421Z,94.80
2018-12-15T03:02:17.488Z,95.10
2018-12-15T03:04:47.004Z,94.20
2018-12-15T03:07:14.492Z,93.20
2018-12-15T03:09:42.654Z,95.40
2018-12-15T03:12:10.127Z,95.10
2018-12-15T03:14:37.595Z,95.60
2018-12-15T03:17:06.386Z,96.00
2018-12-15T03:19:34.410Z,96.60
2018-12-15T03:22:02.002Z,97.00
2018-12-15T03:24:29.578Z,97.60
2018-12-15T03:26:57.797Z,97.90
2018-12-15T03:29:25.286Z,96.70
2018-12-15T03:31:52.763Z,94.50
2018-12-15T03:34:21.064Z,94.20
2018-12-15T03:36:48.541Z,94.40
2018-12-15T03:39:16.358Z,94.50
2018-12-15T03:41:44.653Z,94.70
2018-12-15T03:44:12.850Z,95.60
2018-12-15T03:46:40.334Z,97.50
2018-12-15T03:49:08.557Z,96.30
2018-12-15T03:51:36.045Z,96.00
2018-12-15T03:54:05.043Z,96.40
2018-12-15T03:56:33.318Z,96.30
2018-12-15T03:59:01.302Z,97.10
2018-12-15T04:01:29.469Z,96.70
2018-12-15T04:03:56.937Z,96.40
2018-12-15T04:06:24.411Z,96.10
2018-12-15T04:08:52.583Z,95.60
2018-12-15T04:11:20.048Z,95.70
2018-12-15T04:13:47.532Z,96.60
2018-12-15T04:16:15.093Z,97.00
2018-12-15T04:18:42.584Z,96.70
2018-12-15T04:21:10.432Z,96.60
2018-12-15T04:23:38.706Z,96.20
2018-12-15T04:26:06.229Z,95.90
2018-12-15T04:28:34.100Z,97.20
2018-12-15T04:31:02.395Z,96.40
2018-12-15T04:33:29.885Z,96.90
2018-12-15T04:35:58.694Z,97.00
2018-12-15T04:38:26.262Z,97.30
2018-12-15T04:40:54.608Z,96.50
2018-12-15T04:43:23.039Z,96.90
2018-12-15T04:45:50.592Z,97.80
2018-12-15T04:48:19.056Z,96.90
2018-12-15T04:50:46.545Z,95.30
2018-12-15T04:53:14.776Z,95.40
2018-12-15T04:55:42.847Z,96.50
2018-12-15T04:58:11.534Z,96.40
2018-12-15T05:00:39.017Z,95.80
2018-12-15T05:03:07.047Z,97.40
2018-12-15T05:05:35.157Z,97.60
2018-12-15T05:08:03.558Z,98.50
2018-12-15T05:10:31.024Z,98.60
2018-12-15T05:12:59.085Z,98.10
2018-12-15T05:15:26.695Z,97.60
2018-12-15T05:17:54.255Z,97.70
2018-12-15T05:20:23.098Z,98.50
2018-12-15T05:22:51.668Z,97.40
2018-12-15T05:25:19.347Z,96.60
2018-12-15T05:27:47.850Z,96.00
2018-12-15T05:30:15.341Z,96.10
2018-12-15T05:32:42.846Z,95.80
2018-12-15T05:35:11.046Z,95.80
2018-12-15T05:37:38.638Z,97.10
2018-12-15T05:40:07.341Z,96.30
2018-12-15T05:42:35.585Z,96.10
2018-12-15T05:45:04.665Z,96.20
2018-12-15T05:47:32.755Z,96.40
2018-12-15T05:50:01.043Z,96.40
2018-12-15T05:52:29.093Z,95.20
2018-12-15T05:54:57.424Z,95.60
2018-12-15T05:57:25.888Z,95.30
2018-12-15T05:59:53.421Z,94.20
2018-12-15T06:02:22.967Z,95.70
2018-12-15T06:04:51.952Z,95.30
2018-12-15T06:07:19.400Z,95.90
2018-12-15T06:09:47.518Z,96.70
2018-12-15T06:12:15.102Z,96.10
2018-12-15T06:14:42.593Z,96.40
2018-12-15T06:17:10.131Z,97.10
2018-12-15T06:19:38.545Z,97.70
2018-12-15T06:22:06.138Z,98.00
2018-12-15T06:24:34.230Z,99.30
2018-12-15T06:27:02.798Z,99.20
2018-12-15T06:29:30.326Z,98.80
2018-12-15T06:31:57.789Z,97.30
2018-12-15T06:34:26.103Z,95.70
2018-12-15T06:36:54.398Z,96.00
2018-12-15T06:39:22.285Z,97.00
2018-12-15T06:41:50.246Z,97.00
2018-12-15T06:44:17.809Z,96.30
2018-12-15T06:46:46.590Z,96.30
2018-12-15T06:49:14.637Z,95.10
2018-12-15T06:51:42.665Z,94.50
2018-12-15T06:54:10.726Z,99.90
2018-12-15T06:56:38.199Z,99.90
2018-12-15T06:59:06.357Z,99.90
2018-12-15T07:01:34.403Z,99.90
2018-12-15T07:04:01.902Z,99.90
2018-12-15T07:06:29.484Z,99.90
2018-12-15T07:08:58.105Z,99.90
2018-12-15T07:11:25.579Z,99.90
2018-12-15T07:13:53.067Z,99.90
2018-12-15T07:16:20.621Z,99.90
2018-12-15T07:18:48.212Z,99.90
2018-12-15T07:21:15.830Z,99.90
2018-12-15T07:23:43.953Z,99.90
2018-12-15T07:26:11.437Z,99.90
2018-12-15T07:28:39.675Z,99.90
2018-12-15T07:31:07.142Z,99.90
2018-12-15T07:33:34.607Z,99.90
2018-12-15T07:36:03.199Z,99.90
2018-12-15T07:38:30.650Z,99.90
2018-12-15T07:40:58.949Z,99.90
2018-12-15T07:43:26.516Z,99.90
2018-12-15T07:45:54.886Z,99.90
2018-12-15T07:48:22.988Z,99.90
2018-12-15T07:50:50.556Z,99.90
2018-12-15T07:53:18.812Z,99.90
2018-12-15T07:55:46.939Z,99.90
2018-12-15T07:58:15.893Z,99.90
2018-12-15T08:00:43.350Z,99.90
2018-12-15T08:03:10.855Z,99.90
2018-12-15T08:05:39.016Z,99.90
2018-12-15T08:08:07.579Z,99.90
2018-12-15T08:10:40.823Z,99.90
2018-12-15T08:13:10.331Z,99.90
2018-12-15T08:15:37.825Z,99.90
2018-12-15T08:18:05.337Z,99.90
2018-12-15T08:20:33.587Z,99.90
2018-12-15T08:23:01.058Z,99.90
2018-12-15T08:25:29.133Z,99.90
2018-12-15T08:27:57.069Z,99.90
2018-12-15T08:30:24.549Z,99.90
2018-12-15T08:32:52.745Z,99.90
2018-12-15T08:35:21.035Z,99.90
2018-12-15T08:37:48.509Z,99.90
2018-12-15T08:40:16.005Z,99.90
2018-12-15T08:42:44.412Z,99.90
2018-12-15T08:45:12.181Z,99.90
2018-12-15T08:47:40.667Z,99.90
2018-12-15T08:50:08.390Z,99.90
2018-12-15T08:52:35.994Z,99.90
2018-12-15T08:55:05.235Z,99.90
2018-12-15T08:57:33.874Z,99.90
2018-12-15T09:00:01.363Z,99.90
2018-12-15T09:02:28.877Z,99.90
2018-12-15T09:04:56.437Z,99.90
2018-12-15T09:07:23.911Z,99.90
2018-12-15T09:09:52.220Z,99.90
2018-12-15T09:12:19.812Z,99.50
2018-12-15T09:14:47.916Z,99.90
2018-12-15T09:17:15.458Z,99.30
2018-12-15T09:19:43.742Z,99.90
2018-12-15T09:22:11.716Z,99.70
2018-12-15T09:24:39.993Z,98.50
2018-12-15T09:27:08.138Z,98.30
2018-12-15T09:29:36.450Z,99.10
2018-12-15T09:32:04.224Z,98.80
2018-12-15T09:34:33.031Z,99.00
2018-12-15T09:37:01.114Z,99.40
2018-12-15T09:39:29.471Z,98.20
2018-12-15T09:41:57.853Z,99.10
2018-12-15T09:44:26.037Z,97.20
2018-12-15T09:46:54.538Z,98.90
2018-12-15T09:49:22.805Z,97.80
2018-12-15T09:51:50.837Z,97.30
2018-12-15T09:54:19.438Z,96.50
2018-12-15T09:56:46.937Z,96.20
2018-12-15T09:59:15.308Z,96.30
2018-12-15T10:01:42.919Z,94.90
2018-12-15T10:04:10.521Z,96.10
2018-12-15T10:06:38.300Z,96.10
2018-12-15T10:09:07.670Z,95.50
2018-12-15T10:11:36.025Z,93.70
2018-12-15T10:14:04.195Z,92.80
2018-12-15T10:16:32.353Z,93.60
2018-12-15T10:19:00.637Z,94.00
2018-12-15T10:21:28.673Z,93.60
2018-12-15T10:23:56.205Z,93.50
2018-12-15T10:26:23.973Z,93.90
2018-12-15T10:28:52.654Z,92.20
2018-12-15T10:31:26.111Z,92.80
2018-12-15T10:33:54.411Z,92.70
2018-12-15T10:36:23.241Z,91.60
2018-12-15T10:38:51.249Z,91.60
2018-12-15T10:41:21.080Z,90.40
2018-12-15T10:43:49.346Z,92.00
2018-12-15T10:46:16.821Z,89.10
2018-12-15T10:48:45.468Z,89.00
2018-12-15T10:51:13.358Z,90.10
2018-12-15T10:53:41.797Z,89.60
2018-12-15T10:56:09.282Z,88.00
2018-12-15T10:58:37.882Z,89.40
2018-12-15T11:01:11.211Z,88.30
2018-12-15T11:03:38.745Z,88.90
2018-12-15T11:06:06.244Z,88.00
2018-12-15T11:08:34.749Z,87.90
2018-12-15T11:11:02.257Z,87.70
2018-12-15T11:13:31.634Z,87.40
2018-12-15T11:15:59.118Z,87.80
2018-12-15T11:18:26.610Z,87.60
2018-12-15T11:20:54.717Z,88.40
2018-12-15T11:23:22.304Z,87.60
2018-12-15T11:25:50.469Z,88.30
2018-12-15T11:28:18.540Z,85.90
2018-12-15T11:30:46.078Z,87.60
2018-12-15T11:33:14.381Z,88.30
2018-12-15T11:35:42.362Z,87.20
2018-12-15T11:38:10.425Z,86.30
2018-12-15T11:40:38.557Z,87.80
2018-12-15T11:43:06.789Z,86.70
2018-12-15T11:45:34.580Z,86.20
2018-12-15T11:48:02.853Z,84.50
2018-12-15T11:50:31.034Z,86.80
2018-12-15T11:52:59.368Z,85.10
2018-12-15T11:55:27.014Z,85.30
2018-12-15T11:57:54.891Z,85.70
2018-12-15T12:00:22.390Z,87.10
2018-12-15T12:02:49.923Z,85.30
2018-12-15T12:05:17.442Z,84.80
2018-12-15T12:07:45.093Z,84.60
2018-12-15T12:10:13.695Z,86.10
2018-12-15T12:12:41.819Z,84.70
2018-12-15T12:15:09.491Z,85.90
2018-12-15T12:17:38.605Z,85.10
2018-12-15T12:20:06.990Z,85.10
2018-12-15T12:22:35.294Z,85.40
2018-12-15T12:25:03.549Z,85.80
2018-12-15T12:27:32.512Z,85.20
2018-12-15T12:29:59.998Z,84.80
2018-12-15T12:32:28.623Z,84.40
2018-12-15T12:34:57.722Z,85.00
2018-12-15T12:37:25.811Z,84.50
2018-12-15T12:39:53.309Z,83.70
2018-12-15T12:42:21.542Z,84.10
2018-12-15T12:44:49.730Z,82.20
2018-12-15T12:47:18.186Z,84.30
2018-12-15T12:49:45.693Z,84.90
2018-12-15T12:52:13.506Z,81.20
2018-12-15T12:54:41.823Z,80.30
2018-12-15T12:57:09.322Z,77.00
2018-12-15T12:59:37.874Z,75.60
2018-12-15T13:02:05.485Z,77.30
2018-12-15T13:04:32.993Z,80.40
2018-12-15T13:07:00.674Z,81.40
2018-12-15T13:09:28.598Z,82.00
2018-12-15T13:11:56.621Z,81.80
2018-12-15T13:14:24.419Z,81.70
2018-12-15T13:16:52.043Z,81.00
2018-12-15T13:19:19.556Z,80.10
2018-12-15T13:21:47.733Z,78.80
2018-12-15T13:24:15.238Z,79.80
2018-12-15T13:28:13.043Z,78.40
2018-12-15T13:30:42.085Z,79.90
2018-12-15T13:33:21.984Z,79.50
2018-12-15T13:35:49.708Z,80.00
2018-12-15T13:38:18.774Z,80.00
2018-12-15T13:40:47.702Z,79.20
2018-12-15T13:43:15.794Z,79.20
2018-12-15T13:45:44.295Z,79.20
2018-12-15T13:48:13.163Z,79.40
2018-12-15T13:50:41.426Z,78.70
2018-12-15T13:53:09.374Z,79.10
2018-12-15T13:55:38.318Z,79.70
2018-12-15T13:58:06.884Z,78.90
2018-12-15T14:00:34.392Z,78.50
2018-12-15T14:03:01.884Z,78.90
2018-12-15T14:05:30.106Z,79.90
2018-12-15T14:07:58.902Z,79.80
2018-12-15T14:10:28.282Z,79.30
2018-12-15T14:12:57.389Z,79.00
2018-12-15T14:15:24.989Z,79.20
2018-12-15T14:17:53.200Z,79.90
2018-12-15T14:20:21.210Z,80.30
2018-12-15T14:22:50.124Z,81.40
2018-12-15T14:28:20.643Z,80.20
2018-12-15T14:30:48.812Z,81.00
2018-12-15T14:33:17.626Z,80.90
2018-12-15T14:35:46.159Z,81.10
2018-12-15T14:38:13.665Z,81.10
2018-12-15T14:40:41.743Z,81.30
2018-12-15T14:43:10.026Z,81.40
2018-12-15T14:45:37.602Z,81.70
2018-12-15T14:48:06.685Z,81.80
2018-12-15T14:50:35.693Z,82.00
2018-12-15T14:53:04.294Z,82.00
2018-12-15T14:55:32.864Z,82.00
2018-12-15T14:58:00.447Z,82.10
2018-12-15T15:00:28.589Z,82.10
2018-12-15T15:02:56.587Z,82.00
2018-12-15T15:05:25.058Z,82.80
2018-12-15T15:07:53.010Z,82.70
2018-12-15T15:10:21.318Z,83.10
2018-12-15T15:12:49.906Z,83.60
2018-12-15T15:15:18.388Z,83.70
2018-12-15T15:17:45.983Z,83.90
2018-12-15T15:20:14.419Z,83.60
2018-12-15T15:22:41.905Z,83.90
2018-12-15T15:25:10.647Z,83.50
2018-12-15T15:27:39.169Z,84.80
2018-12-15T15:30:08.354Z,84.20
2018-12-15T15:32:35.833Z,83.80
2018-12-15T15:35:05.480Z,84.20
2018-12-15T15:37:32.986Z,84.70
2018-12-15T15:40:01.367Z,84.40
2018-12-15T15:42:29.449Z,84.30
2018-12-15T15:44:57.434Z,84.60
2018-12-15T15:47:25.415Z,84.30
2018-12-15T15:49:52.893Z,85.10
2018-12-15T15:52:20.413Z,87.80
2018-12-15T15:54:48.725Z,87.70
2018-12-15T15:57:17.205Z,89.00
2018-12-15T15:59:44.685Z,88.60
2018-12-15T16:02:12.179Z,88.40
2018-12-15T16:04:40.717Z,88.00
2018-12-15T16:07:08.205Z,87.80
2018-12-15T16:09:36.313Z,89.10
2018-12-15T16:12:04.269Z,90.50
2018-12-15T16:14:32.389Z,90.60
2018-12-15T16:17:00.393Z,91.50
2018-12-15T16:19:27.905Z,92.20
2018-12-15T16:21:56.137Z,91.70
2018-12-15T16:24:24.338Z,90.80
2018-12-15T16:26:52.479Z,91.80
2018-12-15T16:29:20.783Z,91.60
2018-12-15T16:31:50.694Z,91.70
2018-12-15T16:34:18.172Z,91.20
2018-12-15T16:36:46.202Z,91.50
2018-12-15T16:39:13.821Z,90.10
2018-12-15T16:41:42.314Z,89.60
2018-12-15T16:44:10.082Z,90.50
2018-12-15T16:46:37.606Z,89.40
2018-12-15T16:49:06.231Z,88.70
2018-12-15T16:51:34.647Z,88.80
2018-12-15T16:54:03.570Z,88.50
2018-12-15T16:56:31.095Z,88.00
2018-12-15T16:58:58.597Z,88.90
2018-12-15T17:01:26.170Z,89.60
2018-12-15T17:03:53.650Z,89.10
2018-12-15T17:06:21.274Z,87.70
2018-12-15T17:08:49.420Z,89.20
2018-12-15T17:11:16.988Z,89.90
2018-12-15T17:13:45.231Z,88.60
2018-12-15T17:16:13.770Z,88.60
2018-12-15T17:18:42.450Z,90.50
2018-12-15T17:21:10.317Z,91.10
2018-12-15T17:23:39.197Z,90.90
2018-12-15T17:26:07.964Z,90.70
2018-12-15T17:28:35.941Z,92.90
2018-12-15T17:31:03.434Z,92.10
2018-12-15T17:33:30.948Z,91.10
2018-12-15T17:35:58.845Z,91.60
2018-12-15T17:38:27.044Z,91.50
2018-12-15T17:40:55.621Z,91.10
2018-12-15T17:43:23.155Z,90.50
2018-12-15T17:45:50.637Z,92.70
2018-12-15T17:48:18.652Z,96.90
2018-12-15T17:50:46.138Z,95.80
2018-12-15T17:53:14.201Z,97.10
2018-12-15T17:55:43.054Z,94.60
2018-12-15T17:58:14.684Z,93.40
2018-12-15T18:00:40.633Z,92.60
2018-12-15T18:03:08.327Z,94.30
2018-12-15T18:05:35.827Z,95.60
2018-12-15T18:08:03.470Z,95.90
2018-12-15T18:10:31.501Z,94.70
2018-12-15T18:12:59.666Z,95.10
2018-12-15T18:15:28.665Z,94.40
2018-12-15T18:17:57.586Z,94.40
2018-12-15T18:20:25.949Z,94.50
2018-12-15T18:22:54.032Z,94.20
2018-12-15T18:25:22.307Z,94.20
2018-12-15T18:27:50.882Z,94.30
2018-12-15T18:30:18.482Z,93.70
2018-12-15T18:32:46.548Z,95.20
2018-12-15T18:35:14.715Z,96.00
2018-12-15T18:37:42.181Z,95.50
2018-12-15T18:40:09.830Z,95.30
2018-12-15T18:42:37.926Z,94.50
2018-12-15T18:45:06.766Z,94.00
2018-12-15T18:47:34.786Z,95.10
2018-12-15T18:50:03.006Z,94.40
2018-12-15T18:52:31.350Z,94.60
2018-12-15T18:54:59.335Z,93.30
2018-12-15T18:57:26.962Z,95.60
2018-12-15T18:59:55.248Z,94.20
2018-12-15T19:02:23.645Z,95.70
2018-12-15T19:04:51.138Z,96.40
2018-12-15T19:07:18.684Z,95.70
2018-12-15T19:09:46.981Z,94.90
2018-12-15T19:12:16.119Z,93.30
2018-12-15T19:14:47.073Z,93.80
2018-12-15T19:17:16.684Z,92.20
2018-12-15T19:19:44.149Z,91.60
2018-12-15T19:22:12.382Z,91.90
2018-12-15T19:24:40.868Z,92.50
2018-12-15T19:27:09.949Z,92.20
2018-12-15T19:29:40.346Z,92.50
2018-12-15T19:32:07.965Z,91.90
2018-12-15T19:34:36.290Z,93.00
2018-12-15T19:37:04.261Z,93.90
2018-12-15T19:39:32.325Z,91.20
2018-12-15T19:42:00.450Z,93.50
2018-12-15T19:44:28.704Z,94.80
2018-12-15T19:46:56.919Z,94.80
2018-12-15T19:49:24.514Z,94.00
2018-12-15T19:51:52.077Z,94.40
2018-12-15T19:54:20.155Z,92.00
2018-12-15T19:56:47.750Z,92.70
2018-12-15T19:59:15.389Z,92.40
2018-12-15T20:01:43.403Z,92.10
2018-12-15T20:04:11.927Z,92.50
2018-12-15T20:06:39.538Z,92.30
2018-12-15T20:09:09.375Z,92.40
2018-12-15T20:11:38.147Z,91.20
2018-12-15T20:14:06.006Z,91.20
2018-12-15T20:16:33.590Z,90.10
2018-12-15T20:19:01.463Z,90.60
2018-12-15T20:21:35.834Z,90.50
2018-12-15T20:24:00.122Z,90.40
2018-12-15T20:26:27.623Z,90.80
2018-12-15T20:28:55.953Z,90.50
2018-12-15T20:31:23.562Z,91.50
2018-12-15T20:33:52.119Z,92.00
2018-12-15T20:36:20.144Z,93.30
2018-12-15T20:38:47.661Z,94.10
2018-12-15T20:41:17.060Z,94.50
2018-12-15T20:43:45.213Z,93.90
2018-12-15T20:46:13.533Z,90.00
2018-12-15T20:48:41.690Z,91.10
2018-12-15T20:51:10.874Z,89.40
2018-12-15T20:53:39.385Z,91.50
2018-12-15T20:56:06.894Z,92.30
2018-12-15T20:58:34.490Z,92.00
2018-12-15T21:01:02.059Z,91.30
2018-12-15T21:03:29.540Z,91.30
2018-12-15T21:05:57.208Z,91.90
2018-12-15T21:08:24.755Z,91.10
2018-12-15T21:10:53.243Z,90.90
2018-12-15T21:13:21.598Z,91.00
2018-12-15T21:15:53.070Z,90.40
2018-12-15T21:18:20.542Z,92.40
2018-12-15T21:20:48.029Z,92.90
2018-12-15T21:23:15.573Z,92.50
2018-12-15T21:25:44.378Z,93.50
2018-12-15T21:28:12.542Z,94.50
2018-12-15T21:30:40.215Z,93.80
2018-12-15T21:33:08.199Z,96.20
2018-12-15T21:35:36.246Z,94.00
2018-12-15T21:38:04.675Z,95.30
2018-12-15T21:40:32.602Z,93.20
2018-12-15T21:43:00.851Z,93.20
2018-12-15T21:45:28.365Z,92.90
2018-12-15T21:47:57.792Z,93.10
2018-12-15T21:50:25.670Z,93.80
2018-12-15T21:52:54.450Z,92.20
2018-12-15T21:55:21.930Z,91.20
2018-12-15T21:57:50.162Z,92.70
2018-12-15T22:00:17.646Z,93.10
2018-12-15T22:02:45.206Z,94.50
2018-12-15T22:05:12.774Z,93.40
2018-12-15T22:07:41.339Z,94.80
2018-12-15T22:10:09.524Z,94.10
2018-12-15T22:12:38.754Z,94.20
2018-12-15T22:15:07.523Z,95.70
2018-12-15T22:17:35.019Z,96.00
2018-12-15T22:20:03.706Z,95.30
2018-12-15T22:22:31.870Z,95.80
2018-12-15T22:25:00.425Z,97.60
2018-12-15T22:27:28.360Z,95.00
2018-12-15T22:29:56.250Z,96.20
2018-12-15T22:32:24.297Z,96.00
2018-12-15T22:34:51.825Z,95.00
2018-12-15T22:37:20.633Z,94.70
2018-12-15T22:39:48.115Z,95.90
2018-12-15T22:42:16.347Z,95.50
2018-12-15T22:44:44.739Z,96.70
2018-12-15T22:47:12.809Z,96.50
2018-12-15T22:49:41.090Z,95.40
2018-12-15T22:52:09.900Z,95.90
2018-12-15T22:54:38.301Z,95.40
2018-12-15T22:57:05.800Z,94.90
2018-12-15T22:59:33.372Z,93.60
2018-12-15T23:02:01.066Z,93.10
2018-12-15T23:04:28.557Z,93.10
2018-12-15T23:06:56.597Z,92.90
2018-12-15T23:09:25.318Z,91.70
2018-12-15T23:11:53.581Z,92.70
2018-12-15T23:14:21.757Z,92.70
2018-12-15T23:16:50.651Z,92.30
2018-12-15T23:19:18.141Z,92.10
2018-12-15T23:21:45.605Z,91.80
2018-12-15T23:24:14.045Z,91.40
2018-12-15T23:26:43.158Z,91.10
2018-12-15T23:29:11.445Z,91.10
2018-12-15T23:31:38.926Z,91.10
2018-12-15T23:34:07.078Z,90.90
2018-12-15T23:36:34.564Z,90.80
2018-12-15T23:39:02.921Z,90.60
2018-12-15T23:41:30.908Z,90.30
2018-12-15T23:43:59.302Z,90.50
2018-12-15T23:46:27.637Z,89.10
2018-12-15T23:48:55.810Z,89.40
2018-12-15T23:51:23.332Z,88.60
2018-12-15T23:53:51.348Z,88.60
2018-12-15T23:56:18.823Z,88.30
2018-12-15T23:58:46.427Z,88.10
